Terminal Aerodrome Forecast
Issued by NWS Green Bay, WI

Home | Current Version | Previous Version | Graphics & Text | Print | Product List | Glossary On
Versions: 1 2 3 4 5 6 7 8 9 10 11 12 13 14 15 16 17 18 19 20 21 22 23 24 25 26 27 28 29 30 31 32 33 34 35 36 37 38 39 40 41 42 43 44 45 46 47 48 49 50
316
FTUS43 KGRB 171505 AAA
TAFGRB
TAF AMD
KGRB 171505Z 1715/1812 18013G20KT P6SM SCT016 BKN120
      TEMPO 1715/1718 BKN016
     FM171800 17013G24KT P6SM -RA OVC020
     FM180000 18007KT 4SM -RA BR OVC008
     FM180300 20005KT 1 1/2SM -RA BR OVC003
     FM180800 33009KT 4SM -RA BR OVC008=

USA.gov is the U.S. government's official web portal to all federal, state and local government web resources and services.